sensor_id;sensor_type;location;lat;lon;timestamp;pressure;altitude;pressure_sealevel;temperature
6550;BMP280;15142;48.888;9.134;2023-04-24T00:00:53;97053.53;;;11.73
6550;BMP280;15142;48.888;9.134;2023-04-24T00:03:22;97060.19;;;11.74
6550;BMP280;15142;48.888;9.134;2023-04-24T00:05:53;97058.06;;;11.76
6550;BMP280;15142;48.888;9.134;2023-04-24T00:08:22;97053.81;;;11.80
6550;BMP280;15142;48.888;9.134;2023-04-24T00:10:54;97054.72;;;11.84
6550;BMP280;15142;48.888;9.134;2023-04-24T00:13:22;97054.13;;;11.87
6550;BMP280;15142;48.888;9.134;2023-04-24T00:15:51;97060.72;;;11.88
6550;BMP280;15142;48.888;9.134;2023-04-24T00:18:19;97065.09;;;11.87
6550;BMP280;15142;48.888;9.134;2023-04-24T00:20:48;97067.38;;;11.89
6550;BMP280;15142;48.888;9.134;2023-04-24T00:23:17;97066.44;;;11.93
6550;BMP280;15142;48.888;9.134;2023-04-24T00:25:45;97058.78;;;11.93
6550;BMP280;15142;48.888;9.134;2023-04-24T00:28:16;97064.63;;;11.94
6550;BMP280;15142;48.888;9.134;2023-04-24T00:30:45;97067.97;;;11.94
6550;BMP280;15142;48.888;9.134;2023-04-24T00:33:14;97068.41;;;11.96
6550;BMP280;15142;48.888;9.134;2023-04-24T00:35:43;97062.53;;;11.96
6550;BMP280;15142;48.888;9.134;2023-04-24T00:38:11;97067.66;;;11.96
6550;BMP280;15142;48.888;9.134;2023-04-24T00:40:41;97070.19;;;11.96
6550;BMP280;15142;48.888;9.134;2023-04-24T00:43:10;97072.16;;;11.98
6550;BMP280;15142;48.888;9.134;2023-04-24T00:45:42;97067.94;;;12.02
6550;BMP280;15142;48.888;9.134;2023-04-24T00:48:11;97059.81;;;12.00
6550;BMP280;15142;48.888;9.134;2023-04-24T00:50:40;97055.28;;;11.97
6550;BMP280;15142;48.888;9.134;2023-04-24T00:53:09;97053.50;;;11.98
6550;BMP280;15142;48.888;9.134;2023-04-24T00:55:37;97059.22;;;11.95
6550;BMP280;15142;48.888;9.134;2023-04-24T00:58:07;97053.38;;;11.95
6550;BMP280;15142;48.888;9.134;2023-04-24T01:00:36;97050.06;;;11.94
6550;BMP280;15142;48.888;9.134;2023-04-24T01:03:07;97043.72;;;11.92
6550;BMP280;15142;48.888;9.134;2023-04-24T01:05:36;97045.06;;;11.97
6550;BMP280;15142;48.888;9.134;2023-04-24T01:08:06;97053.19;;;11.99
6550;BMP280;15142;48.888;9.134;2023-04-24T01:10:36;97044.47;;;12.00
6550;BMP280;15142;48.888;9.134;2023-04-24T01:13:05;97045.97;;;12.01
6550;BMP280;15142;48.888;9.134;2023-04-24T01:15:35;97045.97;;;12.01
6550;BMP280;15142;48.888;9.134;2023-04-24T01:18:07;97043.88;;;12.03
6550;BMP280;15142;48.888;9.134;2023-04-24T01:20:36;97035.75;;;12.01
6550;BMP280;15142;48.888;9.134;2023-04-24T01:23:08;97040.84;;;12.01
6550;BMP280;15142;48.888;9.134;2023-04-24T01:25:37;97037.75;;;11.96
6550;BMP280;15142;48.888;9.134;2023-04-24T01:28:05;97030.94;;;11.92
6550;BMP280;15142;48.888;9.134;2023-04-24T01:30:34;97020.28;;;11.90
6550;BMP280;15142;48.888;9.134;2023-04-24T01:33:03;97020.00;;;11.83
6550;BMP280;15142;48.888;9.134;2023-04-24T01:35:32;97019.09;;;11.79
6550;BMP280;15142;48.888;9.134;2023-04-24T01:38:01;97018.50;;;11.73
6550;BMP280;15142;48.888;9.134;2023-04-24T01:40:33;97014.75;;;11.71
6550;BMP280;15142;48.888;9.134;2023-04-24T01:43:03;97020.59;;;11.71
6550;BMP280;15142;48.888;9.134;2023-04-24T01:45:32;97012.38;;;11.66
6550;BMP280;15142;48.888;9.134;2023-04-24T01:48:03;97010.72;;;11.62
6550;BMP280;15142;48.888;9.134;2023-04-24T01:50:32;97014.16;;;11.57
6550;BMP280;15142;48.888;9.134;2023-04-24T01:53:03;97022.47;;;11.54
6550;BMP280;15142;48.888;9.134;2023-04-24T01:55:34;97026.19;;;11.57
6550;BMP280;15142;48.888;9.134;2023-04-24T01:58:03;97019.00;;;11.50
6550;BMP280;15142;48.888;9.134;2023-04-24T02:00:32;97019.28;;;11.49
6550;BMP280;15142;48.888;9.134;2023-04-24T02:03:01;97013.75;;;11.47
6550;BMP280;15142;48.888;9.134;2023-04-24T02:05:30;97016.28;;;11.47
6550;BMP280;15142;48.888;9.134;2023-04-24T02:07:59;97014.03;;;11.45
6550;BMP280;15142;48.888;9.134;2023-04-24T02:10:28;97016.75;;;11.40
6550;BMP280;15142;48.888;9.134;2023-04-24T02:13:00;97013.56;;;11.43
6550;BMP280;15142;48.888;9.134;2023-04-24T02:15:30;97017.19;;;11.42
6550;BMP280;15142;48.888;9.134;2023-04-24T02:17:59;97010.53;;;11.41
6550;BMP280;15142;48.888;9.134;2023-04-24T02:20:28;97016.75;;;11.40
6550;BMP280;15142;48.888;9.134;2023-04-24T02:22:56;97011.00;;;11.43
6550;BMP280;15142;48.888;9.134;2023-04-24T02:25:24;97012.53;;;11.44
6550;BMP280;15142;48.888;9.134;2023-04-24T02:27:55;97025.75;;;11.55
6550;BMP280;15142;48.888;9.134;2023-04-24T02:30:26;97023.16;;;11.63
6550;BMP280;15142;48.888;9.134;2023-04-24T02:32:54;97024.81;;;11.68
6550;BMP280;15142;48.888;9.134;2023-04-24T02:35:23;97032.34;;;11.56
6550;BMP280;15142;48.888;9.134;2023-04-24T02:37:52;97042.13;;;11.29
6550;BMP280;15142;48.888;9.134;2023-04-24T02:40:21;97039.09;;;11.10
6550;BMP280;15142;48.888;9.134;2023-04-24T02:42:49;97034.88;;;10.97
6550;BMP280;15142;48.888;9.134;2023-04-24T02:45:18;97036.78;;;10.92
6550;BMP280;15142;48.888;9.134;2023-04-24T02:47:49;97042.94;;;10.91
6550;BMP280;15142;48.888;9.134;2023-04-24T02:50:18;97038.59;;;10.91
6550;BMP280;15142;48.888;9.134;2023-04-24T02:52:47;97023.59;;;10.90
6550;BMP280;15142;48.888;9.134;2023-04-24T02:55:15;97028.69;;;10.81
6550;BMP280;15142;48.888;9.134;2023-04-24T02:57:44;97022.94;;;10.76
6550;BMP280;15142;48.888;9.134;2023-04-24T03:00:13;97021.75;;;10.74
6550;BMP280;15142;48.888;9.134;2023-04-24T03:02:42;97017.06;;;10.76
6550;BMP280;15142;48.888;9.134;2023-04-24T03:05:14;97024.31;;;10.74
6550;BMP280;15142;48.888;9.134;2023-04-24T03:07:42;97022.19;;;10.76
6550;BMP280;15142;48.888;9.134;2023-04-24T03:10:11;97020.09;;;10.77
6550;BMP280;15142;48.888;9.134;2023-04-24T03:12:41;97015.75;;;10.78
6550;BMP280;15142;48.888;9.134;2023-04-24T03:15:10;97006.00;;;10.80
6550;BMP280;15142;48.888;9.134;2023-04-24T03:17:39;97016.50;;;10.78
6550;BMP280;15142;48.888;9.134;2023-04-24T03:20:08;97015.63;;;10.75
6550;BMP280;15142;48.888;9.134;2023-04-24T03:22:40;97005.06;;;10.68
6550;BMP280;15142;48.888;9.134;2023-04-24T03:25:09;97012.69;;;10.68
6550;BMP280;15142;48.888;9.134;2023-04-24T03:27:37;96989.47;;;10.69
6550;BMP280;15142;48.888;9.134;2023-04-24T03:30:27;97005.66;;;10.65
6550;BMP280;15142;48.888;9.134;2023-04-24T03:32:59;97005.66;;;10.65
6550;BMP280;15142;48.888;9.134;2023-04-24T03:35:31;97010.78;;;10.65
6550;BMP280;15142;48.888;9.134;2023-04-24T03:38:05;97010.00;;;10.64
6550;BMP280;15142;48.888;9.134;2023-04-24T03:40:43;97010.78;;;10.65
6550;BMP280;15142;48.888;9.134;2023-04-24T03:43:32;97012.88;;;10.63
6550;BMP280;15142;48.888;9.134;2023-04-24T03:46:02;97006.50;;;10.60
6550;BMP280;15142;48.888;9.134;2023-04-24T03:48:35;97013.28;;;10.56
6550;BMP280;15142;48.888;9.134;2023-04-24T03:51:06;97012.41;;;10.61
6550;BMP280;15142;48.888;9.134;2023-04-24T03:53:38;97019.00;;;10.62
6550;BMP280;15142;48.888;9.134;2023-04-24T03:56:08;97012.09;;;10.62
6550;BMP280;15142;48.888;9.134;2023-04-24T03:58:37;97014.78;;;10.57
6550;BMP280;15142;48.888;9.134;2023-04-24T04:01:06;97021.38;;;10.58
6550;BMP280;15142;48.888;9.134;2023-04-24T04:04:01;97014.34;;;10.64
6550;BMP280;15142;48.888;9.134;2023-04-24T04:06:29;97018.44;;;10.65
6550;BMP280;15142;48.888;9.134;2023-04-24T04:09:02;97029.94;;;10.62
6550;BMP280;15142;48.888;9.134;2023-04-24T04:11:33;97040.06;;;10.67
6550;BMP280;15142;48.888;9.134;2023-04-24T04:14:01;97053.69;;;10.63
6550;BMP280;15142;48.888;9.134;2023-04-24T04:16:32;97075.09;;;10.53
6550;BMP280;15142;48.888;9.134;2023-04-24T04:19:02;97100.88;;;10.44
6550;BMP280;15142;48.888;9.134;2023-04-24T04:21:31;97106.25;;;10.20
6550;BMP280;15142;48.888;9.134;2023-04-24T04:24:20;97096.13;;;9.86
6550;BMP280;15142;48.888;9.134;2023-04-24T04:26:50;97102.81;;;9.82
6550;BMP280;15142;48.888;9.134;2023-04-24T04:29:27;97091.56;;;9.83
6550;BMP280;15142;48.888;9.134;2023-04-24T04:31:57;97108.38;;;9.84
6550;BMP280;15142;48.888;9.134;2023-04-24T04:34:27;97104.50;;;9.86
6550;BMP280;15142;48.888;9.134;2023-04-24T04:36:57;97117.72;;;9.88
6550;BMP280;15142;48.888;9.134;2023-04-24T04:39:46;97114.72;;;9.86
6550;BMP280;15142;48.888;9.134;2023-04-24T04:42:19;97129.06;;;9.82
6550;BMP280;15142;48.888;9.134;2023-04-24T04:44:49;97123.03;;;9.78
6550;BMP280;15142;48.888;9.134;2023-04-24T04:47:24;97111.03;;;9.79
6550;BMP280;15142;48.888;9.134;2023-04-24T04:49:56;97111.91;;;9.74
6550;BMP280;15142;48.888;9.134;2023-04-24T04:52:27;97113.25;;;9.72
6550;BMP280;15142;48.888;9.134;2023-04-24T04:55:08;97122.69;;;9.71
6550;BMP280;15142;48.888;9.134;2023-04-24T04:57:56;97138.53;;;9.68
6550;BMP280;15142;48.888;9.134;2023-04-24T05:00:26;97143.91;;;9.67
6550;BMP280;15142;48.888;9.134;2023-04-24T05:03:01;97151.53;;;9.67
6550;BMP280;15142;48.888;9.134;2023-04-24T05:05:31;97148.25;;;9.66
6550;BMP280;15142;48.888;9.134;2023-04-24T05:08:00;97162.50;;;9.67
6550;BMP280;15142;48.888;9.134;2023-04-24T05:10:31;97165.78;;;9.68
6550;BMP280;15142;48.888;9.134;2023-04-24T05:13:03;97181.66;;;9.65
6550;BMP280;15142;48.888;9.134;2023-04-24T05:15:33;97182.41;;;9.65
6550;BMP280;15142;48.888;9.134;2023-04-24T05:18:02;97184.19;;;9.65
6550;BMP280;15142;48.888;9.134;2023-04-24T05:20:32;97182.88;;;9.67
6550;BMP280;15142;48.888;9.134;2023-04-24T05:23:01;97185.31;;;9.72
6550;BMP280;15142;48.888;9.134;2023-04-24T05:25:32;97185.59;;;9.71
6550;BMP280;15142;48.888;9.134;2023-04-24T05:28:07;97176.47;;;9.70
6550;BMP280;15142;48.888;9.134;2023-04-24T05:30:35;97189.84;;;9.75
6550;BMP280;15142;48.888;9.134;2023-04-24T05:33:05;97193.25;;;9.71
6550;BMP280;15142;48.888;9.134;2023-04-24T05:35:35;97199.13;;;9.71
6550;BMP280;15142;48.888;9.134;2023-04-24T05:38:04;97204.75;;;9.68
6550;BMP280;15142;48.888;9.134;2023-04-24T05:40:36;97213.25;;;9.64
6550;BMP280;15142;48.888;9.134;2023-04-24T05:43:04;97227.88;;;9.58
6550;BMP280;15142;48.888;9.134;2023-04-24T05:45:33;97224.84;;;9.56
6550;BMP280;15142;48.888;9.134;2023-04-24T05:48:02;97229.47;;;9.55
6550;BMP280;15142;48.888;9.134;2023-04-24T05:50:32;97229.94;;;9.56
6550;BMP280;15142;48.888;9.134;2023-04-24T05:53:01;97225.63;;;9.57
6550;BMP280;15142;48.888;9.134;2023-04-24T05:55:37;97227.59;;;9.73
6550;BMP280;15142;48.888;9.134;2023-04-24T05:58:06;97228.69;;;9.81
6550;BMP280;15142;48.888;9.134;2023-04-24T06:00:36;97230.59;;;9.88
6550;BMP280;15142;48.888;9.134;2023-04-24T06:03:07;97227.19;;;9.93
6550;BMP280;15142;48.888;9.134;2023-04-24T06:05:36;97227.75;;;9.90
6550;BMP280;15142;48.888;9.134;2023-04-24T06:08:04;97222.41;;;9.78
6550;BMP280;15142;48.888;9.134;2023-04-24T06:10:57;97233.63;;;9.77
6550;BMP280;15142;48.888;9.134;2023-04-24T06:13:26;97232.59;;;9.78
6550;BMP280;15142;48.888;9.134;2023-04-24T06:16:13;97233.16;;;9.88
6550;BMP280;15142;48.888;9.134;2023-04-24T06:18:48;97225.56;;;9.97
6550;BMP280;15142;48.888;9.134;2023-04-24T06:21:19;97223.97;;;10.01
6550;BMP280;15142;48.888;9.134;2023-04-24T06:23:48;97226.19;;;10.16
6550;BMP280;15142;48.888;9.134;2023-04-24T06:26:19;97229.13;;;10.44
6550;BMP280;15142;48.888;9.134;2023-04-24T06:28:47;97231.91;;;10.56
6550;BMP280;15142;48.888;9.134;2023-04-24T06:31:18;97233.78;;;10.64
6550;BMP280;15142;48.888;9.134;2023-04-24T06:33:48;97227.66;;;10.65
6550;BMP280;15142;48.888;9.134;2023-04-24T06:36:17;97230.09;;;10.78
6550;BMP280;15142;48.888;9.134;2023-04-24T06:38:45;97226.25;;;10.80
6550;BMP280;15142;48.888;9.134;2023-04-24T06:41:14;97238.66;;;10.74
6550;BMP280;15142;48.888;9.134;2023-04-24T06:43:45;97241.41;;;10.85
6550;BMP280;15142;48.888;9.134;2023-04-24T06:46:14;97234.47;;;11.07
6550;BMP280;15142;48.888;9.134;2023-04-24T06:48:43;97235.69;;;11.10
6550;BMP280;15142;48.888;9.134;2023-04-24T06:51:11;97229.72;;;11.14
6550;BMP280;15142;48.888;9.134;2023-04-24T06:53:40;97225.56;;;11.35
6550;BMP280;15142;48.888;9.134;2023-04-24T06:56:08;97226.31;;;11.36
6550;BMP280;15142;48.888;9.134;2023-04-24T06:58:37;97222.75;;;11.37
6550;BMP280;15142;48.888;9.134;2023-04-24T07:01:09;97229.34;;;11.38
6550;BMP280;15142;48.888;9.134;2023-04-24T07:03:38;97231.69;;;11.64
6550;BMP280;15142;48.888;9.134;2023-04-24T07:06:06;97233.22;;;11.90
6550;BMP280;15142;48.888;9.134;2023-04-24T07:08:35;97232.50;;;12.06
6550;BMP280;15142;48.888;9.134;2023-04-24T07:11:04;97244.25;;;12.24
6550;BMP280;15142;48.888;9.134;2023-04-24T07:13:33;97230.69;;;11.98
6550;BMP280;15142;48.888;9.134;2023-04-24T07:16:01;97237.28;;;11.99
6550;BMP280;15142;48.888;9.134;2023-04-24T07:18:33;97245.84;;;11.70
6550;BMP280;15142;48.888;9.134;2023-04-24T07:21:02;97248.63;;;11.52
6550;BMP280;15142;48.888;9.134;2023-04-24T07:23:31;97241.41;;;11.45
6550;BMP280;15142;48.888;9.134;2023-04-24T07:26:00;97248.69;;;11.60
6550;BMP280;15142;48.888;9.134;2023-04-24T07:28:29;97249.63;;;11.81
6550;BMP280;15142;48.888;9.134;2023-04-24T07:30:58;97246.66;;;12.12
6550;BMP280;15142;48.888;9.134;2023-04-24T07:33:26;97249.03;;;12.51
6550;BMP280;15142;48.888;9.134;2023-04-24T07:35:58;97259.16;;;12.22
6550;BMP280;15142;48.888;9.134;2023-04-24T07:38:29;97263.91;;;11.90
6550;BMP280;15142;48.888;9.134;2023-04-24T07:40:57;97267.78;;;11.79
6550;BMP280;15142;48.888;9.134;2023-04-24T07:43:26;97278.66;;;11.93
6550;BMP280;15142;48.888;9.134;2023-04-24T07:45:55;97279.44;;;12.10
6550;BMP280;15142;48.888;9.134;2023-04-24T07:48:24;97268.47;;;12.10
6550;BMP280;15142;48.888;9.134;2023-04-24T07:50:53;97273.00;;;12.38
6550;BMP280;15142;48.888;9.134;2023-04-24T07:53:25;97289.69;;;12.27
6550;BMP280;15142;48.888;9.134;2023-04-24T07:55:54;97286.91;;;11.82
6550;BMP280;15142;48.888;9.134;2023-04-24T07:58:22;97279.38;;;11.77
6550;BMP280;15142;48.888;9.134;2023-04-24T08:00:51;97281.00;;;11.65
6550;BMP280;15142;48.888;9.134;2023-04-24T08:03:20;97290.59;;;11.59
6550;BMP280;15142;48.888;9.134;2023-04-24T08:05:49;97297.13;;;11.43
6550;BMP280;15142;48.888;9.134;2023-04-24T08:08:21;97301.69;;;11.46
6550;BMP280;15142;48.888;9.134;2023-04-24T08:10:52;97312.69;;;11.55
6550;BMP280;15142;48.888;9.134;2023-04-24T08:13:22;97303.47;;;11.93
6550;BMP280;15142;48.888;9.134;2023-04-24T08:15:50;97303.50;;;12.01
6550;BMP280;15142;48.888;9.134;2023-04-24T08:18:19;97308.56;;;11.76
6550;BMP280;15142;48.888;9.134;2023-04-24T08:20:47;97309.94;;;11.52
6550;BMP280;15142;48.888;9.134;2023-04-24T08:23:16;97314.56;;;11.41
6550;BMP280;15142;48.888;9.134;2023-04-24T08:25:44;97313.34;;;11.69
6550;BMP280;15142;48.888;9.134;2023-04-24T08:28:16;97323.56;;;11.69
6550;BMP280;15142;48.888;9.134;2023-04-24T08:30:46;97329.13;;;12.26
6550;BMP280;15142;48.888;9.134;2023-04-24T08:33:19;97309.84;;;12.12
6550;BMP280;15142;48.888;9.134;2023-04-24T08:35:48;97318.22;;;11.96
6550;BMP280;15142;48.888;9.134;2023-04-24T08:38:17;97316.56;;;11.91
6550;BMP280;15142;48.888;9.134;2023-04-24T08:40:47;97332.41;;;12.18
6550;BMP280;15142;48.888;9.134;2023-04-24T08:43:18;97325.66;;;12.47
6550;BMP280;15142;48.888;9.134;2023-04-24T08:45:49;97322.38;;;12.55
6550;BMP280;15142;48.888;9.134;2023-04-24T08:48:18;97322.06;;;12.48
6550;BMP280;15142;48.888;9.134;2023-04-24T08:50:48;97334.72;;;12.28
6550;BMP280;15142;48.888;9.134;2023-04-24T08:53:17;97327.75;;;12.12
6550;BMP280;15142;48.888;9.134;2023-04-24T08:55:47;97328.31;;;11.92
6550;BMP280;15142;48.888;9.134;2023-04-24T08:58:20;97333.59;;;12.04
6550;BMP280;15142;48.888;9.134;2023-04-24T09:00:49;97336.75;;;12.01
6550;BMP280;15142;48.888;9.134;2023-04-24T09:03:18;97343.25;;;12.24
6550;BMP280;15142;48.888;9.134;2023-04-24T09:05:47;97331.84;;;12.29
6550;BMP280;15142;48.888;9.134;2023-04-24T09:08:18;97326.69;;;12.21
6550;BMP280;15142;48.888;9.134;2023-04-24T09:10:47;97337.19;;;12.11
6550;BMP280;15142;48.888;9.134;2023-04-24T09:13:15;97333.34;;;11.84
6550;BMP280;15142;48.888;9.134;2023-04-24T09:15:47;97341.34;;;11.74
6550;BMP280;15142;48.888;9.134;2023-04-24T09:18:16;97348.53;;;11.72
6550;BMP280;15142;48.888;9.134;2023-04-24T09:20:58;97357.91;;;11.85
6550;BMP280;15142;48.888;9.134;2023-04-24T09:23:28;97354.25;;;11.69
6550;BMP280;15142;48.888;9.134;2023-04-24T09:25:58;97356.00;;;11.60
6550;BMP280;15142;48.888;9.134;2023-04-24T09:28:29;97365.38;;;11.73
6550;BMP280;15142;48.888;9.134;2023-04-24T09:31:06;97352.53;;;12.11
6550;BMP280;15142;48.888;9.134;2023-04-24T09:33:36;97354.72;;;12.51
6550;BMP280;15142;48.888;9.134;2023-04-24T09:36:05;97369.72;;;13.36
6550;BMP280;15142;48.888;9.134;2023-04-24T09:38:35;97348.59;;;13.39
6550;BMP280;15142;48.888;9.134;2023-04-24T09:41:05;97357.97;;;13.27
6550;BMP280;15142;48.888;9.134;2023-04-24T09:43:35;97357.88;;;12.98
6550;BMP280;15142;48.888;9.134;2023-04-24T09:46:07;97360.78;;;12.80
6550;BMP280;15142;48.888;9.134;2023-04-24T09:48:37;97363.16;;;12.52
6550;BMP280;15142;48.888;9.134;2023-04-24T09:51:06;97371.13;;;12.50
6550;BMP280;15142;48.888;9.134;2023-04-24T09:53:36;97372.63;;;12.51
6550;BMP280;15142;48.888;9.134;2023-04-24T09:56:10;97367.09;;;12.57
6550;BMP280;15142;48.888;9.134;2023-04-24T09:58:40;97372.91;;;12.33
6550;BMP280;15142;48.888;9.134;2023-04-24T10:01:12;97373.44;;;12.68
6550;BMP280;15142;48.888;9.134;2023-04-24T10:03:43;97394.50;;;12.82
6550;BMP280;15142;48.888;9.134;2023-04-24T10:06:12;97384.53;;;13.14
6550;BMP280;15142;48.888;9.134;2023-04-24T10:08:41;97395.38;;;13.28
6550;BMP280;15142;48.888;9.134;2023-04-24T10:11:12;97394.38;;;13.57
6550;BMP280;15142;48.888;9.134;2023-04-24T10:13:41;97397.19;;;12.77
6550;BMP280;15142;48.888;9.134;2023-04-24T10:16:12;97386.66;;;12.54
6550;BMP280;15142;48.888;9.134;2023-04-24T10:18:41;97382.13;;;12.34
6550;BMP280;15142;48.888;9.134;2023-04-24T10:21:10;97389.09;;;12.03
6550;BMP280;15142;48.888;9.134;2023-04-24T10:23:39;97405.41;;;12.24
6550;BMP280;15142;48.888;9.134;2023-04-24T10:26:12;97396.13;;;12.45
6550;BMP280;15142;48.888;9.134;2023-04-24T10:28:45;97397.41;;;12.17
6550;BMP280;15142;48.888;9.134;2023-04-24T10:31:17;97401.97;;;11.90
6550;BMP280;15142;48.888;9.134;2023-04-24T10:33:46;97398.88;;;11.71
6550;BMP280;15142;48.888;9.134;2023-04-24T10:36:16;97412.84;;;11.66
6550;BMP280;15142;48.888;9.134;2023-04-24T10:38:46;97413.16;;;11.64
6550;BMP280;15142;48.888;9.134;2023-04-24T10:41:17;97416.25;;;11.53
6550;BMP280;15142;48.888;9.134;2023-04-24T10:43:49;97413.97;;;11.51
6550;BMP280;15142;48.888;9.134;2023-04-24T10:46:34;97410.72;;;11.59
6550;BMP280;15142;48.888;9.134;2023-04-24T10:49:05;97414.56;;;11.78
6550;BMP280;15142;48.888;9.134;2023-04-24T10:51:46;97419.06;;;12.03
6550;BMP280;15142;48.888;9.134;2023-04-24T10:54:25;97425.63;;;11.96
6550;BMP280;15142;48.888;9.134;2023-04-24T10:57:26;97433.59;;;12.41
6550;BMP280;15142;48.888;9.134;2023-04-24T11:00:15;97434.31;;;12.33
6550;BMP280;15142;48.888;9.134;2023-04-24T11:02:47;97431.13;;;12.19
6550;BMP280;15142;48.888;9.134;2023-04-24T11:05:20;97442.09;;;12.50
6550;BMP280;15142;48.888;9.134;2023-04-24T11:08:10;97443.56;;;12.42
6550;BMP280;15142;48.888;9.134;2023-04-24T11:10:40;97449.84;;;12.28
6550;BMP280;15142;48.888;9.134;2023-04-24T11:13:09;97454.72;;;12.55
6550;BMP280;15142;48.888;9.134;2023-04-24T11:15:37;97460.94;;;12.79
6550;BMP280;15142;48.888;9.134;2023-04-24T11:18:15;97440.88;;;12.56
6550;BMP280;15142;48.888;9.134;2023-04-24T11:20:44;97454.44;;;12.64
6550;BMP280;15142;48.888;9.134;2023-04-24T11:23:13;97454.94;;;13.00
6550;BMP280;15142;48.888;9.134;2023-04-24T11:25:43;97456.72;;;12.91
6550;BMP280;15142;48.888;9.134;2023-04-24T11:28:14;97454.31;;;13.03
6550;BMP280;15142;48.888;9.134;2023-04-24T11:30:45;97464.25;;;13.04
6550;BMP280;15142;48.888;9.134;2023-04-24T11:33:19;97458.84;;;13.14
6550;BMP280;15142;48.888;9.134;2023-04-24T11:35:48;97444.22;;;13.06
6550;BMP280;15142;48.888;9.134;2023-04-24T11:38:19;97447.78;;;12.63
6550;BMP280;15142;48.888;9.134;2023-04-24T11:40:49;97446.63;;;12.69
6550;BMP280;15142;48.888;9.134;2023-04-24T11:43:18;97446.44;;;12.57
6550;BMP280;15142;48.888;9.134;2023-04-24T11:45:48;97460.75;;;12.67
6550;BMP280;15142;48.888;9.134;2023-04-24T11:48:21;97461.22;;;12.69
6550;BMP280;15142;48.888;9.134;2023-04-24T11:50:50;97470.69;;;12.77
6550;BMP280;15142;48.888;9.134;2023-04-24T11:53:19;97470.13;;;12.96
6550;BMP280;15142;48.888;9.134;2023-04-24T11:55:48;97463.50;;;12.87
6550;BMP280;15142;48.888;9.134;2023-04-24T11:58:20;97466.94;;;12.83
6550;BMP280;15142;48.888;9.134;2023-04-24T12:00:55;97472.81;;;12.66
6550;BMP280;15142;48.888;9.134;2023-04-24T12:03:28;97463.59;;;12.49
6550;BMP280;15142;48.888;9.134;2023-04-24T12:06:04;97473.53;;;12.50
6550;BMP280;15142;48.888;9.134;2023-04-24T12:08:34;97472.00;;;12.41
6550;BMP280;15142;48.888;9.134;2023-04-24T12:11:04;97469.03;;;12.56
6550;BMP280;15142;48.888;9.134;2023-04-24T12:13:34;97463.47;;;12.54
6550;BMP280;15142;48.888;9.134;2023-04-24T12:16:03;97465.91;;;12.20
6550;BMP280;15142;48.888;9.134;2023-04-24T12:18:41;97474.75;;;12.14
6550;BMP280;15142;48.888;9.134;2023-04-24T12:21:17;97474.47;;;12.24
6550;BMP280;15142;48.888;9.134;2023-04-24T12:23:46;97487.16;;;12.29
6550;BMP280;15142;48.888;9.134;2023-04-24T12:26:17;97472.09;;;12.27
6550;BMP280;15142;48.888;9.134;2023-04-24T12:28:48;97480.91;;;12.13
6550;BMP280;15142;48.888;9.134;2023-04-24T12:31:17;97484.38;;;12.17
6550;BMP280;15142;48.888;9.134;2023-04-24T12:33:52;97479.38;;;12.04
6550;BMP280;15142;48.888;9.134;2023-04-24T12:36:21;97487.91;;;11.99
6550;BMP280;15142;48.888;9.134;2023-04-24T12:38:52;97491.78;;;12.19
6550;BMP280;15142;48.888;9.134;2023-04-24T12:41:21;97490.72;;;12.50
6550;BMP280;15142;48.888;9.134;2023-04-24T12:43:53;97493.53;;;12.40
6550;BMP280;15142;48.888;9.134;2023-04-24T12:46:22;97490.66;;;12.41
6550;BMP280;15142;48.888;9.134;2023-04-24T12:48:53;97496.22;;;12.05
6550;BMP280;15142;48.888;9.134;2023-04-24T12:51:24;97494.88;;;12.07
6550;BMP280;15142;48.888;9.134;2023-04-24T12:53:53;97493.19;;;12.33
6550;BMP280;15142;48.888;9.134;2023-04-24T12:56:21;97497.94;;;12.48
6550;BMP280;15142;48.888;9.134;2023-04-24T12:58:50;97505.59;;;12.48
6550;BMP280;15142;48.888;9.134;2023-04-24T13:01:18;97502.69;;;13.13
6550;BMP280;15142;48.888;9.134;2023-04-24T13:03:47;97533.06;;;14.43
6550;BMP280;15142;48.888;9.134;2023-04-24T13:06:18;97506.81;;;14.86
6550;BMP280;15142;48.888;9.134;2023-04-24T13:08:47;97487.41;;;13.83
6550;BMP280;15142;48.888;9.134;2023-04-24T13:11:16;97493.97;;;13.30
6550;BMP280;15142;48.888;9.134;2023-04-24T13:13:45;97494.84;;;12.84
6550;BMP280;15142;48.888;9.134;2023-04-24T13:16:13;97493.03;;;12.85
6550;BMP280;15142;48.888;9.134;2023-04-24T13:18:42;97496.31;;;12.77
6550;BMP280;15142;48.888;9.134;2023-04-24T13:21:11;97517.38;;;13.91
6550;BMP280;15142;48.888;9.134;2023-04-24T13:23:42;97516.72;;;14.76
6550;BMP280;15142;48.888;9.134;2023-04-24T13:26:11;97519.66;;;15.58
6550;BMP280;15142;48.888;9.134;2023-04-24T13:28:39;97491.28;;;14.54
6550;BMP280;15142;48.888;9.134;2023-04-24T13:31:09;97486.56;;;13.20
6550;BMP280;15142;48.888;9.134;2023-04-24T13:33:37;97490.03;;;13.24
6550;BMP280;15142;48.888;9.134;2023-04-24T13:36:06;97484.25;;;12.60
6550;BMP280;15142;48.888;9.134;2023-04-24T13:38:35;97494.84;;;12.84
6550;BMP280;15142;48.888;9.134;2023-04-24T13:41:06;97486.97;;;12.89
6550;BMP280;15142;48.888;9.134;2023-04-24T13:43:35;97477.47;;;12.56
6550;BMP280;15142;48.888;9.134;2023-04-24T13:46:04;97487.03;;;13.06
6550;BMP280;15142;48.888;9.134;2023-04-24T13:48:32;97463.50;;;12.95
6550;BMP280;15142;48.888;9.134;2023-04-24T13:51:01;97485.34;;;12.68
6550;BMP280;15142;48.888;9.134;2023-04-24T13:53:29;97490.00;;;12.66
6550;BMP280;15142;48.888;9.134;2023-04-24T13:56:01;97488.00;;;12.71
6550;BMP280;15142;48.888;9.134;2023-04-24T13:58:33;97499.97;;;12.76
6550;BMP280;15142;48.888;9.134;2023-04-24T14:01:02;97486.28;;;13.22
6550;BMP280;15142;48.888;9.134;2023-04-24T14:03:33;97491.81;;;13.49
6550;BMP280;15142;48.888;9.134;2023-04-24T14:06:02;97491.81;;;13.32
6550;BMP280;15142;48.888;9.134;2023-04-24T14:08:31;97478.56;;;12.97
6550;BMP280;15142;48.888;9.134;2023-04-24T14:11:00;97488.69;;;12.93
6550;BMP280;15142;48.888;9.134;2023-04-24T14:13:29;97481.31;;;13.00
6550;BMP280;15142;48.888;9.134;2023-04-24T14:16:00;97491.25;;;13.18
6550;BMP280;15142;48.888;9.134;2023-04-24T14:18:29;97487.78;;;12.98
6550;BMP280;15142;48.888;9.134;2023-04-24T14:20:57;97485.75;;;12.70
6550;BMP280;15142;48.888;9.134;2023-04-24T14:23:26;97483.63;;;12.55
6550;BMP280;15142;48.888;9.134;2023-04-24T14:25:56;97489.84;;;12.79
6550;BMP280;15142;48.888;9.134;2023-04-24T14:28:25;97487.28;;;12.79
6550;BMP280;15142;48.888;9.134;2023-04-24T14:30:54;97487.56;;;12.69
6550;BMP280;15142;48.888;9.134;2023-04-24T14:33:25;97481.22;;;12.58
6550;BMP280;15142;48.888;9.134;2023-04-24T14:35:54;97487.28;;;12.62
6550;BMP280;15142;48.888;9.134;2023-04-24T14:38:22;97486.06;;;12.68
6550;BMP280;15142;48.888;9.134;2023-04-24T14:40:51;97490.16;;;12.78
6550;BMP280;15142;48.888;9.134;2023-04-24T14:43:20;97487.16;;;13.01